Time;durP1;ratioP1;P1;durP2;ratioP2;P2;SDS_P1;SDS_P2;PMS_P1;PMS_P2;Temp;Humidity;BMP_temperature;BMP_pressure;BME280_temperature;BME280_humidity;BME280_pressure;Samples;Min_cycle;Max_cycle;Signal;HPM_P1;HPM_P2
2022/10/15 00:01:41;;;;;;;2.23;0.83;;;;;;;12.76;100.00;95661.25;5071926;28;20024;-78
2022/10/15 00:04:07;;;;;;;3.83;0.77;;;;;;;12.74;100.00;95663.25;5053081;28;20056;-78
2022/10/15 00:06:33;;;;;;;1.63;0.77;;;;;;;12.75;100.00;95654.34;5070727;28;20029;-77
2022/10/15 00:08:59;;;;;;;3.03;0.70;;;;;;;12.77;100.00;95657.59;5067377;28;20091;-78
2022/10/15 00:11:27;;;;;;;1.93;0.50;;;;;;;12.79;100.00;95652.97;5071233;28;20446;-78
2022/10/15 00:13:55;;;;;;;3.80;0.73;;;;;;;12.83;100.00;95656.03;5071023;28;20025;-77
2022/10/15 00:16:24;;;;;;;2.80;0.50;;;;;;;12.75;100.00;95662.25;5070491;28;20021;-77
2022/10/15 00:18:51;;;;;;;5.43;0.93;;;;;;;12.78;100.00;95650.53;5070346;28;20044;-78
2022/10/15 00:21:19;;;;;;;1.67;0.70;;;;;;;12.79;100.00;95655.59;5073405;28;20678;-78
2022/10/15 00:23:46;;;;;;;1.60;0.67;;;;;;;12.82;100.00;95652.59;5049259;28;20175;-78
2022/10/15 00:26:14;;;;;;;0.53;0.40;;;;;;;12.80;100.00;95645.88;5034880;28;20479;-78
2022/10/15 00:28:40;;;;;;;0.87;0.40;;;;;;;12.84;100.00;95649.75;5061286;28;20832;-78
2022/10/15 00:31:09;;;;;;;0.43;0.40;;;;;;;12.80;100.00;95651.13;5057322;28;20488;-78
2022/10/15 00:33:35;;;;;;;2.13;0.53;;;;;;;12.77;100.00;95647.03;5052167;28;20476;-76
2022/10/15 00:36:12;;;;;;;2.00;0.50;;;;;;;12.79;100.00;95641.59;5048608;28;20513;-78
2022/10/15 00:38:38;;;;;;;1.30;0.47;;;;;;;12.78;100.00;95646.06;5049064;28;20120;-77
2022/10/15 00:41:06;;;;;;;3.60;0.37;;;;;;;12.75;100.00;95641.16;5056517;28;20729;-78
2022/10/15 00:43:59;;;;;;;1.77;0.50;;;;;;;12.74;100.00;95642.97;5053360;28;20047;-78
2022/10/15 00:46:34;;;;;;;0.40;0.40;;;;;;;12.80;100.00;95646.69;5066689;28;20391;-78
2022/10/15 00:49:25;;;;;;;1.03;0.53;;;;;;;12.81;100.00;95643.06;5050545;28;20055;-77
2022/10/15 00:51:58;;;;;;;1.23;0.43;;;;;;;12.81;100.00;95642.22;5072004;28;20105;-78
2022/10/15 00:54:26;;;;;;;;;;;;;;;12.81;100.00;95632.50;5075586;28;20109;-78
2022/10/15 00:56:54;;;;;;;2.20;0.47;;;;;;;12.80;100.00;95641.41;5070343;28;19912;-76
2022/10/15 00:59:24;;;;;;;1.10;0.40;;;;;;;12.79;100.00;95637.13;5065071;28;20040;-78
2022/10/15 01:01:52;;;;;;;1.10;0.43;;;;;;;12.79;100.00;95629.22;5059262;28;20029;-77
2022/10/15 01:04:17;;;;;;;1.85;0.52;;;;;;;12.77;100.00;95639.13;5081743;28;20025;-76
2022/10/15 01:06:44;;;;;;;0.90;0.50;;;;;;;12.79;100.00;95629.22;5069023;28;20048;-77
2022/10/15 01:09:11;;;;;;;1.37;0.30;;;;;;;12.81;100.00;95624.59;5083796;28;20028;-78
2022/10/15 01:11:40;;;;;;;1.35;0.40;;;;;;;12.81;100.00;95627.22;5075535;28;20098;-78
2022/10/15 01:14:29;;;;;;;0.25;0.25;;;;;;;12.80;100.00;95624.75;5054812;28;20024;-77
2022/10/15 01:17:21;;;;;;;0.93;0.38;;;;;;;12.81;100.00;95621.09;5070836;28;20387;-77
2022/10/15 01:20:02;;;;;;;3.30;0.40;;;;;;;12.84;100.00;95616.25;5052897;28;20054;-77
2022/10/15 01:22:45;;;;;;;0.63;0.35;;;;;;;12.85;100.00;95612.63;5054674;28;20047;-76
2022/10/15 01:25:29;;;;;;;1.55;0.40;;;;;;;12.84;100.00;95610.97;5053228;28;20047;-77
2022/10/15 01:28:07;;;;;;;0.93;0.30;;;;;;;12.89;100.00;95610.44;5069682;28;20126;-77
2022/10/15 01:30:38;;;;;;;0.47;0.30;;;;;;;12.88;100.00;95607.00;5053569;28;20115;-77
2022/10/15 01:33:14;;;;;;;1.85;0.22;;;;;;;12.93;100.00;95594.03;5059201;28;20040;-77
2022/10/15 01:35:46;;;;;;;0.70;0.40;;;;;;;12.91;100.00;95600.50;5052018;28;20408;-77
2022/10/15 01:38:29;;;;;;;0.28;0.20;;;;;;;12.88;100.00;95596.44;5069645;28;20097;-77
2022/10/15 01:40:59;;;;;;;1.83;0.20;;;;;;;12.93;100.00;95594.03;5069744;28;20028;-77
2022/10/15 01:43:40;;;;;;;0.50;0.20;;;;;;;12.92;100.00;95586.31;5069709;28;20124;-77
2022/10/15 01:46:44;;;;;;;0.50;0.32;;;;;;;12.94;100.00;95590.41;5044137;28;20385;-77
2022/10/15 01:49:20;;;;;;;0.90;0.13;;;;;;;12.97;100.00;95595.28;5051264;28;20020;-77
2022/10/15 01:51:49;;;;;;;0.03;0.03;;;;;;;13.00;100.00;95577.44;5054814;28;20032;-77
2022/10/15 01:54:18;;;;;;;0.20;0.10;;;;;;;12.99;100.00;95587.19;5070902;28;20432;-77
2022/10/15 01:56:48;;;;;;;1.33;0.28;;;;;;;13.03;100.00;95582.34;5059185;28;20431;-77
2022/10/15 01:59:30;;;;;;;0.45;0.20;;;;;;;13.02;100.00;95581.53;5069130;28;20477;-76
2022/10/15 02:01:57;;;;;;;0.45;0.22;;;;;;;12.99;100.00;95573.97;5069566;28;20038;-77
2022/10/15 02:04:25;;;;;;;2.13;0.33;;;;;;;12.99;100.00;95584.53;5065215;28;20571;-76
2022/10/15 02:07:12;;;;;;;0.68;0.30;;;;;;;13.05;100.00;95577.69;5065500;28;20384;-77
2022/10/15 02:09:53;;;;;;;1.67;0.20;;;;;;;13.05;100.00;95575.06;5070893;28;20025;-77
2022/10/15 02:12:41;;;;;;;0.30;0.10;;;;;;;13.06;100.00;95574.03;5071183;28;20040;-77
2022/10/15 02:15:10;;;;;;;1.90;0.20;;;;;;;13.06;100.00;95571.41;5070831;28;20025;-76
2022/10/15 02:18:01;;;;;;;0.53;0.10;;;;;;;13.04;100.00;95568.13;5053766;28;20086;-77
2022/10/15 02:20:35;;;;;;;2.08;0.20;;;;;;;13.04;100.00;95563.66;5070378;28;20039;-77
2022/10/15 02:23:14;;;;;;;1.60;0.20;;;;;;;13.09;100.00;95565.75;5070669;28;20059;-76
2022/10/15 02:25:42;;;;;;;3.10;0.83;;;;;;;13.14;100.00;95565.97;5053987;28;20028;-77
2022/10/15 02:28:11;;;;;;;0.60;0.20;;;;;;;13.13;100.00;95573.06;5070270;28;20047;-76
2022/10/15 02:30:41;;;;;;;0.75;0.10;;;;;;;13.13;100.00;95561.72;5053275;28;20044;-76
2022/10/15 02:33:10;;;;;;;0.82;0.20;;;;;;;13.13;100.00;95565.16;5047438;28;20045;-77
2022/10/15 02:35:39;;;;;;;1.33;0.20;;;;;;;13.13;100.00;95562.53;5070564;28;20663;-76
2022/10/15 02:38:09;;;;;;;0.43;0.10;;;;;;;13.14;100.00;95558.06;5069258;28;20597;-77
2022/10/15 02:40:37;;;;;;;0.20;0.10;;;;;;;13.17;100.00;95562.94;5069847;28;20112;-77
2022/10/15 02:43:07;;;;;;;1.00;0.23;;;;;;;13.14;100.00;95556.22;5070754;28;20043;-76
2022/10/15 02:45:33;;;;;;;0.22;0.10;;;;;;;13.13;100.00;95562.53;5070294;28;20048;-77
2022/10/15 02:47:59;;;;;;;1.03;0.30;;;;;;;13.14;100.00;95553.59;5063277;28;20041;-77
2022/10/15 02:50:25;;;;;;;0.20;0.10;;;;;;;13.14;100.00;95555.41;5070425;28;20085;-76
2022/10/15 02:52:51;;;;;;;1.98;0.20;;;;;;;13.13;100.00;95559.06;5069697;28;20502;-76
2022/10/15 02:55:17;;;;;;;1.95;0.68;;;;;;;13.17;100.00;95555.03;5067572;28;20115;-77
2022/10/15 02:57:43;;;;;;;1.60;0.30;;;;;;;13.14;100.00;95552.78;5049059;28;20111;-76
2022/10/15 03:00:10;;;;;;;1.17;0.50;;;;;;;13.14;100.00;95553.59;5074940;28;20027;-77
2022/10/15 03:02:37;;;;;;;0.17;0.17;;;;;;;13.13;100.00;95551.16;5070035;28;20525;-76
2022/10/15 03:05:03;;;;;;;0.35;0.20;;;;;;;13.16;100.00;95546.31;5066093;28;20123;-75
2022/10/15 03:07:29;;;;;;;0.38;0.20;;;;;;;13.13;100.00;95551.16;5048057;28;20144;-76
2022/10/15 03:09:55;;;;;;;0.35;0.20;;;;;;;13.12;100.00;95552.97;5031088;28;20099;-76
2022/10/15 03:12:24;;;;;;;0.98;0.20;;;;;;;13.16;100.00;95553.41;5056266;28;20036;-77
2022/10/15 03:14:51;;;;;;;0.95;0.20;;;;;;;13.16;100.00;95545.50;5066740;28;20033;-77
2022/10/15 03:17:17;;;;;;;9.05;1.58;;;;;;;13.17;100.00;95547.09;5045676;28;20024;-77
2022/10/15 03:19:43;;;;;;;0.10;0.10;;;;;;;13.16;100.00;95550.78;5067666;28;20613;-77
2022/10/15 03:22:10;;;;;;;0.75;0.25;;;;;;;13.23;100.00;95556.91;5064089;28;20036;-76
2022/10/15 03:24:46;;;;;;;0.20;0.20;;;;;;;13.20;100.00;95554.66;5048960;28;20033;-76
2022/10/15 03:27:12;;;;;;;1.30;0.25;;;;;;;13.20;100.00;95555.47;5066406;28;20577;-77
2022/10/15 03:29:38;;;;;;;2.08;0.20;;;;;;;13.24;100.00;95555.94;5067039;28;20066;-75
2022/10/15 03:32:05;;;;;;;0.43;0.40;;;;;;;13.26;100.00;95561.84;5075437;28;20028;-77
2022/10/15 03:34:30;;;;;;;0.63;0.20;;;;;;;13.27;100.00;95558.19;5067302;28;20024;-76
2022/10/15 03:36:56;;;;;;;0.17;0.10;;;;;;;13.30;100.00;95559.63;5067153;28;20487;-76
2022/10/15 03:39:22;;;;;;;0.17;0.17;;;;;;;13.29;100.00;95566.75;5050321;28;20043;-77
2022/10/15 03:41:52;;;;;;;0.20;0.10;;;;;;;13.32;100.00;95566.34;5067280;28;20502;-76
2022/10/15 03:44:23;;;;;;;1.88;0.47;;;;;;;13.33;100.00;95567.16;5066897;28;20043;-76
2022/10/15 03:47:00;;;;;;;6.33;3.73;;;;;;;13.38;100.00;95572.66;5053033;28;20028;-76
2022/10/15 03:49:36;;;;;;;0.97;0.20;;;;;;;13.39;100.00;95569.84;5067578;28;20035;-76
2022/10/15 03:52:05;;;;;;;0.15;0.15;;;;;;;13.39;100.00;95577.78;5051064;28;20128;-76
2022/10/15 03:54:31;;;;;;;0.20;0.20;;;;;;;13.39;100.00;95584.88;5067139;28;20078;-77
2022/10/15 03:56:57;;;;;;;0.33;0.13;;;;;;;13.39;100.00;95583.06;5054151;28;20021;-76
2022/10/15 03:59:31;;;;;;;0.10;0.10;;;;;;;13.37;100.00;95585.06;5044620;28;20611;-77
2022/10/15 04:02:00;;;;;;;0.52;0.20;;;;;;;13.35;100.00;95586.28;5078932;28;20040;-77
2022/10/15 04:04:26;;;;;;;1.27;0.20;;;;;;;13.35;100.00;95586.28;5050317;28;20033;-75
2022/10/15 04:06:52;;;;;;;1.95;0.22;;;;;;;13.37;100.00;95587.72;5069221;28;20034;-76
2022/10/15 04:09:18;;;;;;;0.20;0.20;;;;;;;13.37;100.00;95587.72;5047319;28;20036;-77
2022/10/15 04:11:45;;;;;;;2.72;0.25;;;;;;;13.37;100.00;95585.06;5039684;28;20029;-77
2022/10/15 04:14:11;;;;;;;0.63;0.20;;;;;;;13.37;100.00;95594.81;5060096;28;20022;-77
2022/10/15 04:16:37;;;;;;;2.70;1.38;;;;;;;13.38;100.00;95594.66;5051683;28;20031;-77
2022/10/15 04:19:19;;;;;;;0.80;0.20;;;;;;;13.36;100.00;95588.72;5051953;28;20029;-77
2022/10/15 04:21:55;;;;;;;2.35;0.20;;;;;;;13.37;100.00;95595.63;5063756;28;20132;-77
2022/10/15 04:24:31;;;;;;;0.50;0.20;;;;;;;13.41;100.00;95607.47;5051330;28;20083;-77
2022/10/15 04:26:57;;;;;;;0.10;0.10;;;;;;;13.42;100.00;95603.00;5049014;28;21535;-77
2022/10/15 04:29:23;;;;;;;0.10;0.10;;;;;;;13.42;100.00;95603.00;5066288;28;20029;-77
2022/10/15 04:31:49;;;;;;;0.32;0.15;;;;;;;13.42;100.00;95609.09;5065594;28;20036;-77
2022/10/15 04:34:15;;;;;;;0.13;0.13;;;;;;;13.42;100.00;95610.91;5049970;28;20036;-76
2022/10/15 04:36:41;;;;;;;0.30;0.20;;;;;;;13.42;100.00;95617.00;5050455;28;20029;-78
2022/10/15 04:39:27;;;;;;;0.68;0.20;;;;;;;13.43;100.00;95610.72;5065580;28;20089;-77
2022/10/15 04:41:53;;;;;;;0.65;0.30;;;;;;;13.43;100.00;95623.09;5050206;28;20123;-77
2022/10/15 04:44:28;;;;;;;0.93;0.33;;;;;;;13.47;100.00;95620.91;5051331;28;20036;-77
2022/10/15 04:46:59;;;;;;;2.05;0.30;;;;;;;13.48;100.00;95617.25;5067841;28;20123;-77
2022/10/15 04:49:45;;;;;;;1.30;0.45;;;;;;;13.49;100.00;95624.19;5065640;28;20499;-75
2022/10/15 04:52:39;;;;;;;;;;;;;;;13.48;100.00;95627.81;5047799;28;20033;-75
2022/10/15 04:55:09;;;;;;;2.10;0.30;;;;;;;13.50;100.00;95625.81;5036541;28;19992;-77
2022/10/15 04:57:37;;;;;;;3.05;0.32;;;;;;;13.48;100.00;95625.16;5068184;28;20073;-77
2022/10/15 05:00:04;;;;;;;0.77;0.33;;;;;;;13.47;100.00;95624.34;5051765;28;20052;-77
2022/10/15 05:02:33;;;;;;;0.32;0.30;;;;;;;13.47;100.00;95632.28;5065064;28;20102;-77
2022/10/15 05:05:20;;;;;;;1.65;0.40;;;;;;;13.47;100.00;95631.47;5032450;28;20167;-77
2022/10/15 05:07:51;;;;;;;0.40;0.30;;;;;;;13.43;100.00;95629.19;5063247;28;20048;-76
2022/10/15 05:10:17;;;;;;;1.13;0.30;;;;;;;13.41;100.00;95623.31;5065743;28;20032;-77
2022/10/15 05:12:44;;;;;;;0.45;0.30;;;;;;;13.46;100.00;95629.84;5049719;28;20431;-77
2022/10/15 05:15:10;;;;;;;0.30;0.20;;;;;;;13.42;100.00;95643.44;5065609;28;20027;-77
2022/10/15 05:17:36;;;;;;;1.98;0.32;;;;;;;13.42;100.00;95640.78;5070206;28;20028;-76
2022/10/15 05:20:02;;;;;;;1.50;0.20;;;;;;;13.44;100.00;95644.03;5066328;28;20043;-77
2022/10/15 05:22:29;;;;;;;0.65;0.20;;;;;;;13.41;100.00;95641.81;5066196;28;20411;-77
2022/10/15 05:25:00;;;;;;;1.98;0.30;;;;;;;13.44;100.00;95649.31;5050205;28;20624;-77
2022/10/15 05:27:36;;;;;;;0.60;0.30;;;;;;;13.41;100.00;95656.81;5045081;28;20043;-76
2022/10/15 05:30:04;;;;;;;1.13;0.22;;;;;;;13.42;100.00;95653.19;5060697;28;20483;-77
2022/10/15 05:32:43;;;;;;;1.17;0.22;;;;;;;13.42;100.00;95656.63;5055071;28;20029;-77
2022/10/15 05:35:11;;;;;;;0.75;0.20;;;;;;;13.43;100.00;95660.91;5065978;28;20491;-77
2022/10/15 05:38:06;;;;;;;2.17;0.30;;;;;;;13.41;100.00;95668.22;5062131;28;20038;-77
2022/10/15 05:40:32;;;;;;;0.93;0.35;;;;;;;13.40;100.00;95679.75;5069613;28;20028;-77
2022/10/15 05:43:04;;;;;;;0.80;0.40;;;;;;;13.42;100.00;95674.31;5066266;28;20484;-75
2022/10/15 05:45:30;;;;;;;0.98;0.45;;;;;;;13.41;100.00;95673.50;5033157;28;20028;-77
2022/10/15 05:48:01;;;;;;;0.28;0.25;;;;;;;13.39;100.00;95679.97;5054072;28;20621;-77
2022/10/15 05:50:27;;;;;;;1.02;0.40;;;;;;;13.40;100.00;95681.59;5050691;28;20123;-77
2022/10/15 05:52:56;;;;;;;0.57;0.40;;;;;;;13.42;100.00;95687.50;5049973;28;20553;-76
2022/10/15 05:55:45;;;;;;;2.50;0.52;;;;;;;13.41;100.00;95684.06;5048810;28;20041;-77
2022/10/15 05:58:10;;;;;;;0.70;0.40;;;;;;;13.39;100.00;95682.63;5045967;28;20032;-77
2022/10/15 06:00:38;;;;;;;0.63;0.30;;;;;;;13.40;100.00;95692.97;5069290;28;20037;-77
2022/10/15 06:03:04;;;;;;;1.15;0.40;;;;;;;13.37;100.00;95690.72;5051621;28;20491;-77
2022/10/15 06:05:31;;;;;;;2.83;0.40;;;;;;;13.40;100.00;95697.44;5069439;28;20064;-76
2022/10/15 06:07:56;;;;;;;0.40;0.40;;;;;;;13.38;100.00;95699.44;5068879;28;20505;-77
2022/10/15 06:10:22;;;;;;;1.25;0.45;;;;;;;13.37;100.00;95700.47;5052199;28;20033;-77
2022/10/15 06:12:49;;;;;;;1.02;0.60;;;;;;;13.37;100.00;95700.47;5049524;28;20037;-77
2022/10/15 06:15:16;;;;;;;0.40;0.40;;;;;;;13.37;100.00;95703.09;5048606;28;20495;-77
2022/10/15 06:17:42;;;;;;;1.05;0.47;;;;;;;13.38;100.00;95708.22;5069691;28;20507;-76
2022/10/15 06:20:08;;;;;;;0.65;0.52;;;;;;;13.39;100.00;95709.84;5068462;28;20047;-77
2022/10/15 06:22:34;;;;;;;1.40;0.40;;;;;;;13.39;100.00;95717.75;5051815;28;20067;-77
2022/10/15 06:24:59;;;;;;;0.82;0.30;;;;;;;13.42;100.00;95730.59;5068698;28;20056;-77
2022/10/15 06:27:26;;;;;;;0.80;0.40;;;;;;;13.42;100.00;95729.78;5062279;28;20021;-77
2022/10/15 06:29:52;;;;;;;0.93;0.45;;;;;;;13.46;100.00;95727.56;5040232;28;20036;-77
2022/10/15 06:32:18;;;;;;;0.40;0.28;;;;;;;13.47;100.00;95718.63;5069610;28;20785;-76
2022/10/15 06:34:43;;;;;;;0.85;0.50;;;;;;;13.48;100.00;95733.47;5063952;28;20411;-77
2022/10/15 06:37:09;;;;;;;1.90;0.38;;;;;;;13.52;100.00;95737.38;5054888;28;20527;-77
2022/10/15 06:39:35;;;;;;;1.50;0.50;;;;;;;13.55;100.00;95742.28;5068067;28;20071;-76
2022/10/15 06:42:00;;;;;;;1.05;0.40;;;;;;;13.57;100.00;95756.09;5068696;28;20036;-77
2022/10/15 06:44:37;;;;;;;0.28;0.20;;;;;;;13.64;100.00;95764.91;5048794;28;20514;-76
2022/10/15 06:47:03;;;;;;;0.77;0.40;;;;;;;13.63;100.00;95766.75;5076532;28;20588;-76
2022/10/15 06:49:28;;;;;;;1.23;0.43;;;;;;;13.63;100.00;95758.81;5068712;28;20040;-77
2022/10/15 06:51:54;;;;;;;2.50;0.65;;;;;;;13.64;100.00;95770.19;5069406;28;20035;-77
2022/10/15 06:54:20;;;;;;;0.40;0.40;;;;;;;13.65;100.00;95771.84;5063718;28;20033;-77
2022/10/15 06:56:45;;;;;;;0.65;0.38;;;;;;;13.63;100.00;95776.50;5069622;28;20111;-77
2022/10/15 06:59:11;;;;;;;0.90;0.50;;;;;;;13.63;100.00;95779.13;5067976;28;20487;-77
2022/10/15 07:01:37;;;;;;;1.30;0.52;;;;;;;13.61;100.00;95783.78;5067894;28;20109;-75
2022/10/15 07:04:02;;;;;;;2.30;0.55;;;;;;;13.61;100.00;95786.44;5044957;28;20036;-77
2022/10/15 07:06:28;;;;;;;1.27;0.85;;;;;;;13.64;100.00;95796.63;5063703;28;20037;-77
2022/10/15 07:08:54;;;;;;;3.70;1.20;;;;;;;13.66;100.00;95794.63;5051223;28;20033;-75
2022/10/15 07:11:19;;;;;;;1.27;0.75;;;;;;;13.71;100.00;95792.22;5050908;28;20063;-75
2022/10/15 07:13:45;;;;;;;2.00;0.82;;;;;;;13.70;100.00;95795.06;5051112;28;20028;-77
2022/10/15 07:16:12;;;;;;;2.08;0.50;;;;;;;13.66;100.00;95808.63;5047177;28;20139;-77
2022/10/15 07:18:38;;;;;;;0.65;0.38;;;;;;;13.68;100.00;95811.09;5047944;28;20519;-77
2022/10/15 07:21:06;;;;;;;1.20;0.47;;;;;;;13.70;100.00;95810.91;5051529;28;20028;-77
2022/10/15 07:23:32;;;;;;;0.85;0.30;;;;;;;13.71;100.00;95813.34;5060823;28;20024;-77
2022/10/15 07:25:59;;;;;;;1.23;0.50;;;;;;;13.77;100.00;95814.44;5067463;28;20028;-77
2022/10/15 07:28:25;;;;;;;2.38;0.60;;;;;;;13.85;100.00;95815.13;5067404;28;20559;-76
2022/10/15 07:30:51;;;;;;;2.22;0.60;;;;;;;13.85;100.00;95812.47;5068754;28;20422;-76
2022/10/15 07:33:17;;;;;;;3.40;0.47;;;;;;;13.87;100.00;95818.38;5066178;28;20048;-77
2022/10/15 07:35:52;;;;;;;2.55;0.60;;;;;;;13.88;100.00;95827.97;5049395;28;20154;-76
2022/10/15 07:38:18;;;;;;;2.50;0.40;;;;;;;13.89;100.00;95837.53;5062104;28;20060;-77
2022/10/15 07:40:44;;;;;;;1.58;0.73;;;;;;;13.92;100.00;95831.03;5065389;28;20032;-77
2022/10/15 07:43:09;;;;;;;1.70;0.60;;;;;;;13.98;100.00;95826.81;5068354;28;20487;-77
2022/10/15 07:45:35;;;;;;;2.17;0.95;;;;;;;14.00;100.00;95827.44;5046829;28;20088;-75
2022/10/15 07:48:01;;;;;;;2.08;0.65;;;;;;;14.09;100.00;95834.25;5066155;28;20107;-77
2022/10/15 07:50:27;;;;;;;2.35;0.65;;;;;;;14.24;100.00;95837.59;5066323;28;20028;-77
2022/10/15 07:52:58;;;;;;;4.22;0.50;;;;;;;14.38;100.00;95831.44;5066213;28;20031;-76
2022/10/15 07:55:24;;;;;;;4.30;0.60;;;;;;;14.55;100.00;95836.44;5062551;28;20024;-77
2022/10/15 07:57:50;;;;;;;2.85;1.30;;;;;;;14.70;100.00;95831.84;5067388;28;20047;-77
2022/10/15 08:00:15;;;;;;;2.63;0.80;;;;;;;14.79;100.00;95837.81;5064726;28;20032;-78
2022/10/15 08:02:41;;;;;;;2.75;0.55;;;;;;;14.62;100.00;95837.31;5067619;28;20058;-78
2022/10/15 08:05:07;;;;;;;3.03;0.73;;;;;;;14.69;100.00;95838.16;5070409;28;20545;-77
2022/10/15 08:07:33;;;;;;;1.27;0.50;;;;;;;14.97;100.00;95843.41;5052436;28;20037;-78
2022/10/15 08:10:00;;;;;;;1.00;0.70;;;;;;;14.85;100.00;95851.09;5071130;28;20075;-78
2022/10/15 08:12:26;;;;;;;3.38;0.63;;;;;;;14.81;100.00;95844.53;5069617;28;20038;-78
2022/10/15 08:14:52;;;;;;;1.35;0.35;;;;;;;14.76;100.00;95848.78;5071243;28;20028;-78
2022/10/15 08:17:18;;;;;;;0.30;0.30;;;;;;;14.74;100.00;95845.50;5078136;28;20530;-77
2022/10/15 08:19:44;;;;;;;1.67;0.70;;;;;;;14.99;100.00;95853.78;5037966;28;20045;-78
2022/10/15 08:22:11;;;;;;;1.48;0.70;;;;;;;15.45;100.00;95850.53;5063657;28;20039;-78
2022/10/15 08:24:37;;;;;;;0.73;0.40;;;;;;;15.99;100.00;95847.00;5070621;28;20024;-78
2022/10/15 08:27:02;;;;;;;1.73;0.60;;;;;;;16.02;100.00;95843.94;5064058;28;20032;-77
2022/10/15 08:29:28;;;;;;;2.75;0.65;;;;;;;15.82;100.00;95853.72;5071456;28;20035;-78
2022/10/15 08:31:54;;;;;;;1.20;0.68;;;;;;;15.56;100.00;95861.38;5080130;28;20326;-78
2022/10/15 08:34:22;;;;;;;2.45;0.40;;;;;;;15.65;100.00;95861.19;5085866;28;20012;-78
2022/10/15 08:36:48;;;;;;;3.60;0.60;;;;;;;15.92;100.00;95857.59;5072503;28;20029;-78
2022/10/15 08:39:14;;;;;;;2.75;0.50;;;;;;;15.83;100.00;95860.63;5053674;28;20040;-78
2022/10/15 08:42:02;;;;;;;2.10;0.40;;;;;;;16.06;100.00;95858.44;5054550;28;20024;-78
2022/10/15 08:44:43;;;;;;;1.13;0.50;;;;;;;16.13;100.00;95866.41;5070034;28;20032;-77
2022/10/15 08:47:27;;;;;;;1.38;0.70;;;;;;;16.36;100.00;95869.47;5074993;28;20024;-78
2022/10/15 08:49:55;;;;;;;0.93;0.32;;;;;;;16.34;100.00;95858.25;5069536;28;20040;-78
2022/10/15 08:52:38;;;;;;;1.65;0.70;;;;;;;16.38;100.00;95863.97;5067682;28;20301;-77
2022/10/15 08:55:04;;;;;;;2.22;0.52;;;;;;;16.35;100.00;95864.38;5065255;28;20054;-77
2022/10/15 08:57:36;;;;;;;0.88;0.50;;;;;;;16.13;100.00;95869.88;5071605;28;20078;-76
2022/10/15 09:00:16;;;;;;;2.17;0.50;;;;;;;16.00;100.00;95873.34;5054012;28;20380;-78
2022/10/15 09:02:52;;;;;;;1.15;0.57;;;;;;;15.75;100.00;95878.38;5053074;28;20024;-78
2022/10/15 09:05:26;;;;;;;0.85;0.30;;;;;;;15.74;100.00;95868.78;5069129;28;20502;-77
2022/10/15 09:08:32;;;;;;;2.88;0.50;;;;;;;15.44;100.00;95878.84;5071541;28;20040;-79
2022/10/15 09:11:15;;;;;;;2.10;0.45;;;;;;;15.35;100.00;95884.53;5049781;28;20044;-79
2022/10/15 09:13:43;;;;;;;5.75;1.38;;;;;;;15.33;100.00;95879.44;5047706;28;20035;-79
2022/10/15 09:16:37;;;;;;;3.30;0.80;;;;;;;15.33;100.00;95892.69;5075212;28;20119;-79
2022/10/15 09:19:15;;;;;;;1.85;0.70;;;;;;;15.24;100.00;95889.38;5065499;28;20028;-78
2022/10/15 09:21:42;;;;;;;1.08;0.50;;;;;;;15.11;100.00;95894.59;5076421;28;20145;-78
2022/10/15 09:24:13;;;;;;;1.17;0.50;;;;;;;15.07;100.00;95898.66;5075016;28;20459;-77
2022/10/15 09:26:45;;;;;;;2.25;0.50;;;;;;;15.09;100.00;95897.47;5054652;28;20636;-80
2022/10/15 09:29:29;;;;;;;2.47;1.00;;;;;;;15.04;100.00;95907.00;5057016;28;20082;-78
2022/10/15 09:32:12;;;;;;;1.10;0.40;;;;;;;14.87;100.00;95908.31;5060329;28;20040;-78
2022/10/15 09:34:48;;;;;;;1.00;0.50;;;;;;;14.95;100.00;95908.16;5059186;28;20036;-78
2022/10/15 09:37:26;;;;;;;1.50;0.52;;;;;;;14.96;100.00;95909.81;5073925;28;20856;-79
2022/10/15 09:40:29;;;;;;;0.35;0.30;;;;;;;14.73;100.00;95908.22;5069444;28;20032;-78
2022/10/15 09:42:59;;;;;;;1.75;0.30;;;;;;;14.78;100.00;95920.88;5070850;28;20060;-79
2022/10/15 09:45:25;;;;;;;3.03;0.50;;;;;;;14.83;100.00;95919.28;5057527;28;20036;-79
2022/10/15 09:47:55;;;;;;;1.33;0.30;;;;;;;14.87;100.00;95916.25;5057159;28;20251;-79
2022/10/15 09:50:21;;;;;;;0.88;0.40;;;;;;;14.92;100.00;95922.59;5054679;28;20507;-79
2022/10/15 09:52:47;;;;;;;0.60;0.47;;;;;;;14.89;100.00;95916.88;5072925;28;20037;-78
2022/10/15 09:55:49;;;;;;;1.88;1.05;;;;;;;14.77;100.00;95912.13;5073716;28;20025;-77
2022/10/15 09:58:18;;;;;;;2.15;0.82;;;;;;;14.76;100.00;95933.50;5065383;28;20036;-79
2022/10/15 10:00:57;;;;;;;1.00;0.60;;;;;;;14.94;100.00;95930.34;5072843;28;20086;-79
2022/10/15 10:03:26;;;;;;;0.98;0.50;;;;;;;15.00;100.00;95927.75;5056493;28;20546;-78
2022/10/15 10:06:02;;;;;;;0.40;0.40;;;;;;;14.85;100.00;95934.97;5073099;28;20025;-77
2022/10/15 10:08:45;;;;;;;1.48;0.40;;;;;;;14.96;100.00;95942.41;5057849;28;20036;-79
2022/10/15 10:11:12;;;;;;;0.50;0.30;;;;;;;14.93;100.00;95940.13;5074533;28;20036;-79
2022/10/15 10:13:59;;;;;;;0.82;0.43;;;;;;;14.87;100.00;95946.19;5057947;28;20028;-79
2022/10/15 10:16:26;;;;;;;1.30;0.45;;;;;;;14.95;100.00;95940.75;5078602;28;20545;-78
2022/10/15 10:19:10;;;;;;;1.58;0.30;;;;;;;14.92;100.00;95942.97;5092231;28;20031;-79
2022/10/15 10:21:38;;;;;;;0.57;0.40;;;;;;;15.04;100.00;95947.53;5058241;28;20032;-79
2022/10/15 10:24:29;;;;;;;0.25;0.25;;;;;;;14.94;100.00;95944.41;5074462;28;20186;-79
2022/10/15 10:26:56;;;;;;;1.65;0.40;;;;;;;15.01;100.00;95944.44;5058871;28;20093;-78
2022/10/15 10:29:24;;;;;;;5.55;2.90;;;;;;;14.95;100.00;95951.31;5077623;28;20036;-77
2022/10/15 10:31:51;;;;;;;2.13;0.50;;;;;;;15.10;100.00;95945.94;5089526;28;20040;-77
2022/10/15 10:34:31;;;;;;;2.78;0.60;;;;;;;15.04;100.00;95947.53;5080136;28;20023;-76
2022/10/15 10:37:02;;;;;;;2.58;0.57;;;;;;;15.08;100.00;95942.66;5073426;28;20157;-77
2022/10/15 10:39:33;;;;;;;0.93;0.50;;;;;;;15.07;100.00;95943.69;5073402;28;20036;-78
2022/10/15 10:42:03;;;;;;;1.13;0.50;;;;;;;15.22;100.00;95949.66;5088187;28;20035;-78
2022/10/15 10:44:45;;;;;;;0.40;0.40;;;;;;;15.25;100.00;95948.47;5056733;28;20086;-79
2022/10/15 10:47:24;;;;;;;1.13;0.60;;;;;;;15.44;100.00;95944.28;5057520;28;20036;-79
2022/10/15 10:49:57;;;;;;;2.15;0.60;;;;;;;15.64;100.00;95945.19;5073288;28;20123;-79
2022/10/15 10:52:36;;;;;;;1.23;0.55;;;;;;;15.70;100.00;95939.13;5074706;28;20032;-82
2022/10/15 10:55:18;;;;;;;2.40;0.60;;;;;;;16.23;100.00;95933.13;5071785;28;20479;-78
2022/10/15 10:57:49;;;;;;;1.70;0.50;;;;;;;16.29;100.00;95934.19;5072298;28;20075;-78
2022/10/15 11:00:39;;;;;;;1.40;0.70;;;;;;;16.55;100.00;95934.19;5054929;28;20123;-78
2022/10/15 11:03:20;;;;;;;2.40;0.80;;;;;;;16.85;100.00;95924.00;5071949;28;20043;-78
2022/10/15 11:06:21;;;;;;;1.23;0.60;;;;;;;16.76;100.00;95924.44;5072644;28;20663;-78
2022/10/15 11:09:04;;;;;;;3.05;0.90;;;;;;;16.86;100.00;95932.78;5055020;28;20032;-78
2022/10/15 11:11:45;;;;;;;3.38;0.73;;;;;;;17.18;100.00;95923.97;5072884;28;20499;-78
2022/10/15 11:14:52;;;;;;;3.35;1.17;;;;;;;17.29;100.00;95921.69;5071314;28;20029;-78
2022/10/15 11:17:33;;;;;;;1.45;0.80;;;;;;;17.31;100.00;95923.13;5050165;28;20037;-78
2022/10/15 11:20:30;;;;;;;1.23;0.60;;;;;;;17.34;100.00;95921.88;5067667;28;20051;-77
2022/10/15 11:23:09;;;;;;;1.35;0.70;;;;;;;17.25;100.00;95923.13;5071992;28;20028;-79
2022/10/15 11:26:03;;;;;;;1.65;0.55;;;;;;;17.42;100.00;95913.66;5073119;28;20043;-79
2022/10/15 11:28:58;;;;;;;5.38;0.98;;;;;;;17.56;100.00;95906.47;5072834;28;20039;-79
2022/10/15 11:31:56;;;;;;;2.97;0.90;;;;;;;17.68;100.00;95897.63;5072762;28;20089;-78
2022/10/15 11:35:03;;;;;;;1.83;0.70;;;;;;;18.59;100.00;95885.78;5067714;28;20132;-79
2022/10/15 11:37:40;;;;;;;3.50;1.50;;;;;;;18.94;100.00;95885.28;5063188;28;20450;-79
2022/10/15 11:40:31;;;;;;;4.40;1.70;;;;;;;19.66;100.00;95882.06;5072741;28;20097;-79
2022/10/15 11:43:13;;;;;;;5.78;1.48;;;;;;;20.38;100.00;95872.19;5056167;28;20036;-79
2022/10/15 11:46:08;;;;;;;3.00;1.02;;;;;;;20.10;100.00;95862.16;5052487;28;20404;-79
2022/10/15 11:49:09;;;;;;;2.92;0.95;;;;;;;20.07;100.00;95854.59;5057920;28;20492;-79
2022/10/15 11:51:53;;;;;;;2.78;0.82;;;;;;;20.23;100.00;95853.13;5072609;28;20028;-79